createdAt,value
2023-01-07T00:00:10.761Z,76.48
2023-01-07T00:05:15.705Z,76.71
2023-01-07T00:10:17.576Z,76.56
2023-01-07T00:15:19.725Z,76.37
2023-01-07T00:20:21.601Z,76.65
2023-01-07T00:25:23.778Z,76.58
2023-01-07T00:30:25.596Z,76.66
2023-01-07T00:35:28.442Z,76.77
2023-01-07T00:40:31.834Z,76.75
2023-01-07T00:45:36.552Z,76.54
2023-01-07T00:50:39.006Z,76.76
2023-01-07T00:55:41.077Z,76.83
2023-01-07T01:00:43.427Z,76.90
2023-01-07T01:05:45.410Z,77.15
2023-01-07T01:10:48.247Z,77.17
2023-01-07T01:15:50.239Z,77.25
2023-01-07T01:20:52.236Z,77.07
2023-01-07T01:26:03.363Z,77.66
2023-01-07T01:31:05.996Z,77.54
2023-01-07T01:36:18.330Z,77.57
2023-01-07T01:41:20.560Z,77.62
2023-01-07T01:46:25.322Z,77.63
2023-01-07T01:51:34.735Z,77.88
2023-01-07T01:56:40.675Z,77.90
2023-01-07T02:01:42.856Z,77.88
2023-01-07T02:07:10.837Z,77.90
2023-01-07T02:12:16.779Z,77.91
2023-01-07T02:17:33.832Z,78.08
2023-01-07T02:23:00.047Z,78.09
2023-01-07T02:28:04.497Z,78.17
2023-01-07T02:33:15.561Z,78.45
2023-01-07T02:38:55.052Z,78.26
2023-01-07T02:44:31.607Z,78.41
2023-01-07T02:49:34.591Z,78.17
2023-01-07T02:54:39.127Z,78.20
2023-01-07T02:59:56.377Z,78.18
2023-01-07T03:04:58.330Z,78.11
2023-01-07T03:10:31.037Z,77.89
2023-01-07T03:15:48.566Z,78.07
2023-01-07T03:20:57.386Z,77.97
2023-01-07T03:26:05.054Z,77.78
2023-01-07T03:31:12.233Z,77.61
2023-01-07T03:36:18.680Z,77.59
2023-01-07T03:41:39.758Z,77.63
2023-01-07T03:46:42.619Z,77.42
2023-01-07T03:51:46.070Z,77.63
2023-01-07T03:56:48.078Z,77.49
2023-01-07T04:01:50.399Z,77.38
2023-01-07T04:06:53.147Z,77.39
2023-01-07T04:11:55.520Z,77.52
2023-01-07T04:17:00.371Z,77.21
2023-01-07T04:22:03.058Z,77.37
2023-01-07T04:27:08.525Z,77.39
2023-01-07T04:32:13.716Z,77.32
2023-01-07T04:37:17.360Z,77.34
2023-01-07T04:42:19.760Z,77.27
2023-01-07T04:47:25.800Z,77.24
2023-01-07T04:52:28.460Z,77.06
2023-01-07T04:57:30.515Z,77.32
2023-01-07T05:02:33.809Z,77.10
2023-01-07T05:07:35.847Z,76.99
2023-01-07T05:12:39.309Z,77.24
2023-01-07T05:17:44.060Z,77.20
2023-01-07T05:22:46.520Z,77.09
2023-01-07T05:27:48.452Z,76.95
2023-01-07T05:32:51.314Z,77.20
2023-01-07T05:37:53.342Z,76.86
2023-01-07T05:42:56.030Z,77.09
2023-01-07T05:47:57.974Z,77.02
2023-01-07T05:53:00.009Z,76.92
2023-01-07T05:58:01.776Z,76.85
2023-01-07T06:03:05.043Z,77.05
2023-01-07T06:08:06.873Z,77.04
2023-01-07T06:13:08.617Z,76.88
2023-01-07T06:18:10.491Z,76.89
2023-01-07T06:23:12.292Z,76.90
2023-01-07T06:28:18.165Z,77.02
2023-01-07T06:33:20.394Z,76.92
2023-01-07T06:38:22.154Z,76.70
2023-01-07T06:43:24.079Z,76.90
2023-01-07T06:48:26.627Z,76.79
2023-01-07T06:53:28.442Z,76.85
2023-01-07T06:58:30.276Z,76.57
2023-01-07T07:03:32.512Z,76.78
2023-01-07T07:08:34.383Z,76.74
2023-01-07T07:13:36.218Z,76.66
2023-01-07T07:18:38.002Z,76.73
2023-01-07T07:23:39.880Z,76.73
2023-01-07T07:28:43.030Z,76.71
2023-01-07T07:33:45.321Z,76.59
2023-01-07T07:38:47.247Z,76.77
2023-01-07T07:43:49.050Z,76.61
2023-01-07T07:48:51.216Z,76.73
2023-01-07T07:53:53.094Z,76.70
2023-01-07T07:58:54.950Z,76.67
2023-01-07T08:03:56.785Z,76.80
2023-01-07T08:08:58.625Z,76.68
2023-01-07T08:14:00.554Z,76.80
2023-01-07T08:19:02.418Z,76.59
2023-01-07T08:24:04.710Z,76.61
2023-01-07T08:29:06.654Z,76.54
2023-01-07T08:34:08.419Z,76.44
2023-01-07T08:39:11.923Z,76.49
2023-01-07T08:44:13.682Z,76.53
2023-01-07T08:49:15.889Z,76.60
2023-01-07T08:54:17.708Z,76.62
2023-01-07T08:59:19.485Z,76.48
2023-01-07T09:04:21.204Z,76.62
2023-01-07T09:09:24.056Z,76.21
2023-01-07T09:14:25.887Z,76.62
2023-01-07T09:19:28.101Z,76.53
2023-01-07T09:24:29.961Z,76.66
2023-01-07T09:29:32.015Z,76.69
2023-01-07T09:34:33.978Z,76.65
2023-01-07T09:39:35.968Z,76.65
2023-01-07T09:45:04.174Z,76.51
2023-01-07T09:50:19.548Z,76.62
2023-01-07T09:55:26.200Z,76.65
2023-01-07T10:00:29.968Z,76.75
2023-01-07T10:05:53.560Z,76.75
2023-01-07T10:11:04.337Z,76.83
2023-01-07T10:16:36.904Z,76.88
2023-01-07T10:21:55.307Z,76.88
2023-01-07T10:27:03.400Z,76.79
2023-01-07T10:32:21.133Z,76.72
2023-01-07T10:37:38.301Z,76.78
2023-01-07T10:43:01.144Z,76.50
2023-01-07T10:48:18.180Z,76.63
2023-01-07T10:53:33.858Z,76.55
2023-01-07T10:58:42.343Z,76.53
2023-01-07T11:03:46.531Z,76.44
2023-01-07T11:08:50.348Z,76.51
2023-01-07T11:14:19.361Z,76.14
2023-01-07T11:19:21.719Z,76.34
2023-01-07T11:24:34.859Z,76.43
2023-01-07T11:29:45.088Z,76.35
2023-01-07T11:35:00.095Z,76.32
2023-01-07T11:40:16.486Z,76.11
2023-01-07T11:45:20.661Z,76.13
2023-01-07T11:50:25.603Z,76.08
2023-01-07T11:55:28.971Z,76.05
2023-01-07T12:00:31.692Z,75.57
2023-01-07T12:05:33.575Z,75.59
2023-01-07T12:10:38.088Z,75.40
2023-01-07T12:15:55.681Z,75.48
2023-01-07T12:21:27.498Z,75.12
2023-01-07T12:26:50.352Z,75.22
2023-01-07T12:32:22.381Z,75.25
2023-01-07T12:37:43.686Z,75.04
2023-01-07T12:42:52.327Z,74.88
2023-01-07T12:48:02.490Z,75.21
2023-01-07T12:53:19.556Z,74.90
2023-01-07T12:58:47.059Z,74.69
2023-01-07T13:04:13.583Z,74.41
2023-01-07T13:09:31.421Z,74.56
2023-01-07T13:14:56.592Z,74.30
2023-01-07T13:19:58.444Z,74.33
2023-01-07T13:25:26.456Z,74.09
2023-01-07T13:30:43.205Z,73.82
2023-01-07T13:36:14.357Z,73.77
2023-01-07T13:41:25.881Z,73.74
2023-01-07T13:46:35.622Z,73.65
2023-01-07T13:51:38.600Z,73.85
2023-01-07T13:56:40.613Z,73.74
2023-01-07T14:02:16.480Z,73.60
2023-01-07T14:07:19.831Z,73.95
2023-01-07T14:12:47.970Z,73.53
2023-01-07T14:18:17.748Z,73.58
2023-01-07T14:23:35.557Z,73.60
2023-01-07T14:28:52.606Z,73.64
2023-01-07T14:34:04.916Z,73.70
2023-01-07T14:39:33.598Z,73.42
2023-01-07T14:44:35.606Z,73.43
2023-01-07T14:50:08.460Z,73.24
2023-01-07T14:55:31.067Z,73.44
2023-01-07T15:01:05.481Z,73.22
2023-01-07T15:06:27.752Z,73.29
2023-01-07T15:11:49.051Z,73.33
2023-01-07T15:16:53.550Z,73.21
2023-01-07T15:22:00.895Z,73.09
2023-01-07T15:27:10.210Z,73.15
2023-01-07T15:32:15.097Z,72.96
2023-01-07T15:37:18.305Z,72.95
2023-01-07T15:42:22.635Z,72.85
2023-01-07T15:47:41.621Z,72.87
2023-01-07T15:53:00.137Z,72.67
2023-01-07T15:58:08.862Z,72.74
2023-01-07T16:03:16.912Z,72.80
2023-01-07T16:08:25.176Z,72.87
2023-01-07T16:13:27.062Z,72.77
2023-01-07T16:18:33.476Z,72.84
2023-01-07T16:23:37.956Z,72.67
2023-01-07T16:28:55.959Z,72.62
2023-01-07T16:33:59.781Z,72.50
2023-01-07T16:39:11.224Z,72.67
2023-01-07T16:44:48.723Z,72.72
2023-01-07T16:50:10.069Z,72.72
2023-01-07T16:55:52.466Z,72.54
2023-01-07T17:00:56.985Z,72.64
2023-01-07T17:05:58.822Z,72.52
2023-01-07T17:11:09.709Z,72.54
2023-01-07T17:16:15.515Z,72.56
2023-01-07T17:21:37.747Z,72.46
2023-01-07T17:26:42.350Z,72.43
2023-01-07T17:31:44.310Z,72.48
2023-01-07T17:36:46.129Z,72.38
2023-01-07T17:42:07.017Z,72.63
2023-01-07T17:47:11.959Z,72.52
2023-01-07T17:52:13.792Z,72.45
2023-01-07T17:57:15.556Z,72.45
2023-01-07T18:02:19.276Z,72.63
2023-01-07T18:07:21.383Z,72.59
2023-01-07T18:12:35.604Z,72.68
2023-01-07T18:17:38.428Z,72.60
2023-01-07T18:22:43.440Z,72.65
2023-01-07T18:27:45.786Z,72.53
2023-01-07T18:32:50.632Z,72.48
2023-01-07T18:37:52.458Z,72.63
2023-01-07T18:42:55.442Z,72.80
2023-01-07T18:47:57.218Z,72.62
2023-01-07T18:52:59.044Z,72.61
2023-01-07T18:58:00.871Z,72.59
2023-01-07T19:03:02.954Z,72.57
2023-01-07T19:08:04.901Z,72.54
2023-01-07T19:13:07.872Z,72.59
2023-01-07T19:18:09.819Z,72.60
2023-01-07T19:23:12.069Z,72.56
2023-01-07T19:28:13.954Z,72.71
2023-01-07T19:33:15.940Z,72.70
2023-01-07T19:38:17.830Z,72.67
2023-01-07T19:43:19.698Z,72.79
2023-01-07T19:48:22.058Z,72.61
2023-01-07T19:53:25.120Z,72.64
2023-01-07T19:58:28.001Z,72.69
2023-01-07T20:03:39.209Z,72.79
2023-01-07T20:08:44.242Z,72.70
2023-01-07T20:13:48.125Z,72.54
2023-01-07T20:18:52.961Z,72.65
2023-01-07T20:23:55.812Z,72.64
2023-01-07T20:29:23.578Z,72.71
2023-01-07T20:34:27.544Z,72.59
2023-01-07T20:39:31.611Z,72.69
2023-01-07T20:44:34.731Z,72.46
2023-01-07T20:49:36.759Z,72.78
2023-01-07T20:54:38.662Z,72.79
2023-01-07T20:59:42.857Z,72.68
2023-01-07T21:04:44.812Z,72.83
2023-01-07T21:09:46.763Z,72.72
2023-01-07T21:14:52.660Z,72.82
2023-01-07T21:19:55.900Z,72.53
2023-01-07T21:24:58.004Z,72.54
2023-01-07T21:30:05.857Z,72.65
2023-01-07T21:35:09.835Z,72.55
2023-01-07T21:40:11.719Z,72.58
2023-01-07T21:45:14.396Z,72.75
2023-01-07T21:50:16.787Z,72.63
2023-01-07T21:55:18.698Z,72.86
2023-01-07T22:00:20.601Z,72.67
2023-01-07T22:05:22.473Z,72.55
2023-01-07T22:10:25.380Z,72.79
2023-01-07T22:15:27.470Z,72.71
2023-01-07T22:20:29.295Z,72.74
2023-01-07T22:25:32.631Z,72.59
2023-01-07T22:30:36.894Z,72.81
2023-01-07T22:35:38.769Z,72.80
2023-01-07T22:40:41.020Z,72.51
2023-01-07T22:45:46.737Z,72.77
2023-01-07T22:51:03.465Z,72.46
2023-01-07T22:56:05.821Z,72.65
2023-01-07T23:01:14.000Z,72.49
2023-01-07T23:06:16.894Z,72.57
2023-01-07T23:11:37.129Z,72.75
2023-01-07T23:16:39.110Z,72.69
2023-01-07T23:21:43.537Z,72.71
2023-01-07T23:26:47.639Z,72.77
2023-01-07T23:31:49.975Z,72.53
2023-01-07T23:36:52.125Z,72.60
2023-01-07T23:41:53.983Z,73.02
2023-01-07T23:46:55.828Z,72.98
2023-01-07T23:51:58.303Z,72.93
2023-01-07T23:57:01.493Z,72.85
